sensor_id;sensor_type;location;lat;lon;timestamp;temperature;humidity
22065;DHT22;11197;53.110;8.468;2023-07-13T00:00:42;17.30;99.90
22065;DHT22;11197;53.110;8.468;2023-07-13T00:03:08;17.30;99.90
22065;DHT22;11197;53.110;8.468;2023-07-13T00:05:33;17.20;99.90
22065;DHT22;11197;53.110;8.468;2023-07-13T00:07:59;17.20;99.90
22065;DHT22;11197;53.110;8.468;2023-07-13T00:10:25;17.20;99.90
22065;DHT22;11197;53.110;8.468;2023-07-13T00:12:52;17.20;99.90
22065;DHT22;11197;53.110;8.468;2023-07-13T00:15:23;17.20;99.90
22065;DHT22;11197;53.110;8.468;2023-07-13T00:17:54;17.10;99.90
22065;DHT22;11197;53.110;8.468;2023-07-13T00:20:22;17.10;99.90
22065;DHT22;11197;53.110;8.468;2023-07-13T00:22:49;17.10;99.90
22065;DHT22;11197;53.110;8.468;2023-07-13T00:25:15;17.10;99.90
22065;DHT22;11197;53.110;8.468;2023-07-13T00:27:42;17.00;99.90
22065;DHT22;11197;53.110;8.468;2023-07-13T00:30:10;17.00;99.90
22065;DHT22;11197;53.110;8.468;2023-07-13T00:32:36;17.00;99.90
22065;DHT22;11197;53.110;8.468;2023-07-13T00:35:03;16.90;99.90
22065;DHT22;11197;53.110;8.468;2023-07-13T00:37:30;16.90;99.90
22065;DHT22;11197;53.110;8.468;2023-07-13T00:39:56;16.90;99.90
22065;DHT22;11197;53.110;8.468;2023-07-13T00:42:23;16.90;99.90
22065;DHT22;11197;53.110;8.468;2023-07-13T00:47:47;16.90;99.90
22065;DHT22;11197;53.110;8.468;2023-07-13T00:50:15;16.90;99.90
22065;DHT22;11197;53.110;8.468;2023-07-13T00:52:44;16.80;99.90
22065;DHT22;11197;53.110;8.468;2023-07-13T00:55:11;16.80;99.90
22065;DHT22;11197;53.110;8.468;2023-07-13T00:57:38;16.80;99.90
22065;DHT22;11197;53.110;8.468;2023-07-13T01:00:08;16.70;99.90
22065;DHT22;11197;53.110;8.468;2023-07-13T01:02:38;16.70;99.90
22065;DHT22;11197;53.110;8.468;2023-07-13T01:05:18;16.70;99.90
22065;DHT22;11197;53.110;8.468;2023-07-13T01:07:44;16.70;99.90
22065;DHT22;11197;53.110;8.468;2023-07-13T01:10:12;16.70;99.90
22065;DHT22;11197;53.110;8.468;2023-07-13T01:12:39;16.70;99.90
22065;DHT22;11197;53.110;8.468;2023-07-13T01:15:32;16.60;99.90
22065;DHT22;11197;53.110;8.468;2023-07-13T01:17:51;16.60;99.90
22065;DHT22;11197;53.110;8.468;2023-07-13T01:20:17;16.60;99.90
22065;DHT22;11197;53.110;8.468;2023-07-13T01:22:43;16.60;99.90
22065;DHT22;11197;53.110;8.468;2023-07-13T01:25:09;16.50;99.90
22065;DHT22;11197;53.110;8.468;2023-07-13T01:27:35;16.50;99.90
22065;DHT22;11197;53.110;8.468;2023-07-13T01:30:02;16.50;99.90
22065;DHT22;11197;53.110;8.468;2023-07-13T01:32:29;16.50;99.90
22065;DHT22;11197;53.110;8.468;2023-07-13T01:34:56;16.50;99.90
22065;DHT22;11197;53.110;8.468;2023-07-13T01:37:24;16.40;99.90
22065;DHT22;11197;53.110;8.468;2023-07-13T01:39:51;16.40;99.90
22065;DHT22;11197;53.110;8.468;2023-07-13T01:42:17;16.40;99.90
22065;DHT22;11197;53.110;8.468;2023-07-13T01:44:43;16.40;99.90
22065;DHT22;11197;53.110;8.468;2023-07-13T01:47:10;16.30;99.90
22065;DHT22;11197;53.110;8.468;2023-07-13T01:49:36;16.30;99.90
22065;DHT22;11197;53.110;8.468;2023-07-13T01:52:03;16.40;99.90
22065;DHT22;11197;53.110;8.468;2023-07-13T01:54:30;16.30;99.90
22065;DHT22;11197;53.110;8.468;2023-07-13T01:56:56;16.30;99.90
22065;DHT22;11197;53.110;8.468;2023-07-13T01:59:22;16.30;99.90
22065;DHT22;11197;53.110;8.468;2023-07-13T02:01:47;16.20;99.90
22065;DHT22;11197;53.110;8.468;2023-07-13T02:04:13;16.20;99.90
22065;DHT22;11197;53.110;8.468;2023-07-13T02:06:39;16.20;99.90
22065;DHT22;11197;53.110;8.468;2023-07-13T02:09:05;16.20;99.90
22065;DHT22;11197;53.110;8.468;2023-07-13T02:11:32;16.20;99.90
22065;DHT22;11197;53.110;8.468;2023-07-13T02:14:02;16.20;99.90
22065;DHT22;11197;53.110;8.468;2023-07-13T02:16:29;16.10;99.90
22065;DHT22;11197;53.110;8.468;2023-07-13T02:18:55;16.10;99.90
22065;DHT22;11197;53.110;8.468;2023-07-13T02:21:22;16.10;99.90
22065;DHT22;11197;53.110;8.468;2023-07-13T02:23:51;16.10;99.90
22065;DHT22;11197;53.110;8.468;2023-07-13T02:26:18;16.10;99.90
22065;DHT22;11197;53.110;8.468;2023-07-13T02:28:43;16.10;99.90
22065;DHT22;11197;53.110;8.468;2023-07-13T02:31:13;16.10;99.90
22065;DHT22;11197;53.110;8.468;2023-07-13T02:33:38;16.10;99.90
22065;DHT22;11197;53.110;8.468;2023-07-13T02:36:04;16.10;99.90
22065;DHT22;11197;53.110;8.468;2023-07-13T02:38:34;16.00;99.90
22065;DHT22;11197;53.110;8.468;2023-07-13T02:41:05;16.00;99.90
22065;DHT22;11197;53.110;8.468;2023-07-13T02:43:32;15.90;99.90
22065;DHT22;11197;53.110;8.468;2023-07-13T02:45:59;15.90;99.90
22065;DHT22;11197;53.110;8.468;2023-07-13T02:48:30;15.90;99.90
22065;DHT22;11197;53.110;8.468;2023-07-13T02:50:57;15.90;99.90
22065;DHT22;11197;53.110;8.468;2023-07-13T02:53:23;15.90;99.90
22065;DHT22;11197;53.110;8.468;2023-07-13T02:55:49;15.90;99.90
22065;DHT22;11197;53.110;8.468;2023-07-13T02:58:14;15.90;99.90
22065;DHT22;11197;53.110;8.468;2023-07-13T03:00:44;15.90;99.90
22065;DHT22;11197;53.110;8.468;2023-07-13T03:03:12;15.90;99.90
22065;DHT22;11197;53.110;8.468;2023-07-13T03:05:41;15.90;99.90
22065;DHT22;11197;53.110;8.468;2023-07-13T03:08:09;15.90;99.90
22065;DHT22;11197;53.110;8.468;2023-07-13T03:10:35;16.00;99.90
22065;DHT22;11197;53.110;8.468;2023-07-13T03:13:02;15.90;99.90
22065;DHT22;11197;53.110;8.468;2023-07-13T03:15:28;15.90;99.90
22065;DHT22;11197;53.110;8.468;2023-07-13T03:17:56;15.90;99.90
22065;DHT22;11197;53.110;8.468;2023-07-13T03:20:22;15.90;99.90
22065;DHT22;11197;53.110;8.468;2023-07-13T03:22:48;15.90;99.90
22065;DHT22;11197;53.110;8.468;2023-07-13T03:25:15;15.90;99.90
22065;DHT22;11197;53.110;8.468;2023-07-13T03:27:42;15.90;99.90
22065;DHT22;11197;53.110;8.468;2023-07-13T03:30:09;16.00;99.90
22065;DHT22;11197;53.110;8.468;2023-07-13T03:32:35;16.00;99.90
22065;DHT22;11197;53.110;8.468;2023-07-13T03:35:01;16.00;99.90
22065;DHT22;11197;53.110;8.468;2023-07-13T03:37:30;16.00;99.90
22065;DHT22;11197;53.110;8.468;2023-07-13T03:39:56;15.90;99.90
22065;DHT22;11197;53.110;8.468;2023-07-13T03:42:22;16.00;99.90
22065;DHT22;11197;53.110;8.468;2023-07-13T03:44:48;16.00;99.90
22065;DHT22;11197;53.110;8.468;2023-07-13T03:47:18;15.90;99.90
22065;DHT22;11197;53.110;8.468;2023-07-13T03:49:45;16.00;99.90
22065;DHT22;11197;53.110;8.468;2023-07-13T03:52:13;16.00;99.90
22065;DHT22;11197;53.110;8.468;2023-07-13T03:54:38;16.00;99.90
22065;DHT22;11197;53.110;8.468;2023-07-13T03:57:06;16.20;99.90
22065;DHT22;11197;53.110;8.468;2023-07-13T03:59:34;16.70;99.90
22065;DHT22;11197;53.110;8.468;2023-07-13T04:02:01;17.10;99.90
22065;DHT22;11197;53.110;8.468;2023-07-13T04:04:27;17.60;99.90
22065;DHT22;11197;53.110;8.468;2023-07-13T04:06:53;18.20;99.90
22065;DHT22;11197;53.110;8.468;2023-07-13T04:09:19;18.60;99.90
22065;DHT22;11197;53.110;8.468;2023-07-13T04:11:45;18.90;99.90
22065;DHT22;11197;53.110;8.468;2023-07-13T04:14:10;19.20;99.90
22065;DHT22;11197;53.110;8.468;2023-07-13T04:16:36;19.30;99.90
22065;DHT22;11197;53.110;8.468;2023-07-13T04:19:02;19.60;99.90
22065;DHT22;11197;53.110;8.468;2023-07-13T04:21:29;19.60;99.90
22065;DHT22;11197;53.110;8.468;2023-07-13T04:23:55;19.70;99.90
22065;DHT22;11197;53.110;8.468;2023-07-13T04:26:21;19.60;99.90
22065;DHT22;11197;53.110;8.468;2023-07-13T04:28:48;19.60;99.90
22065;DHT22;11197;53.110;8.468;2023-07-13T04:31:15;19.40;99.90
22065;DHT22;11197;53.110;8.468;2023-07-13T04:33:41;19.50;99.90
22065;DHT22;11197;53.110;8.468;2023-07-13T04:36:09;19.40;99.90
22065;DHT22;11197;53.110;8.468;2023-07-13T04:38:35;19.40;99.90
22065;DHT22;11197;53.110;8.468;2023-07-13T04:41:06;19.50;99.90
22065;DHT22;11197;53.110;8.468;2023-07-13T04:43:32;19.50;99.90
22065;DHT22;11197;53.110;8.468;2023-07-13T04:46:06;19.60;99.90
22065;DHT22;11197;53.110;8.468;2023-07-13T04:48:33;19.60;99.90
22065;DHT22;11197;53.110;8.468;2023-07-13T04:50:59;19.20;99.90
22065;DHT22;11197;53.110;8.468;2023-07-13T04:53:26;19.10;99.90
22065;DHT22;11197;53.110;8.468;2023-07-13T04:55:52;19.00;99.90
22065;DHT22;11197;53.110;8.468;2023-07-13T04:58:18;18.90;99.90
22065;DHT22;11197;53.110;8.468;2023-07-13T05:00:44;18.90;99.90
22065;DHT22;11197;53.110;8.468;2023-07-13T05:03:10;18.90;99.90
22065;DHT22;11197;53.110;8.468;2023-07-13T05:05:35;18.90;99.90
22065;DHT22;11197;53.110;8.468;2023-07-13T05:08:01;18.80;99.90
22065;DHT22;11197;53.110;8.468;2023-07-13T05:10:27;18.70;99.90
22065;DHT22;11197;53.110;8.468;2023-07-13T05:12:53;18.70;99.90
22065;DHT22;11197;53.110;8.468;2023-07-13T05:15:23;18.70;99.90
22065;DHT22;11197;53.110;8.468;2023-07-13T05:17:49;18.50;99.90
22065;DHT22;11197;53.110;8.468;2023-07-13T05:20:15;18.50;99.90
22065;DHT22;11197;53.110;8.468;2023-07-13T05:22:42;18.50;99.90
22065;DHT22;11197;53.110;8.468;2023-07-13T05:25:08;18.60;99.90
22065;DHT22;11197;53.110;8.468;2023-07-13T05:27:35;18.90;99.90
22065;DHT22;11197;53.110;8.468;2023-07-13T05:30:02;18.90;99.90
22065;DHT22;11197;53.110;8.468;2023-07-13T05:32:28;18.90;99.90
22065;DHT22;11197;53.110;8.468;2023-07-13T05:34:54;19.00;99.90
22065;DHT22;11197;53.110;8.468;2023-07-13T05:37:20;19.20;99.90
22065;DHT22;11197;53.110;8.468;2023-07-13T05:39:46;19.10;99.90
22065;DHT22;11197;53.110;8.468;2023-07-13T05:42:12;18.90;99.90
22065;DHT22;11197;53.110;8.468;2023-07-13T05:44:37;18.80;99.90
22065;DHT22;11197;53.110;8.468;2023-07-13T05:47:03;18.80;99.90
22065;DHT22;11197;53.110;8.468;2023-07-13T05:49:29;18.60;99.90
22065;DHT22;11197;53.110;8.468;2023-07-13T05:51:56;18.50;99.90
22065;DHT22;11197;53.110;8.468;2023-07-13T05:54:22;18.60;99.90
22065;DHT22;11197;53.110;8.468;2023-07-13T05:56:48;18.80;99.90
22065;DHT22;11197;53.110;8.468;2023-07-13T05:59:13;18.80;99.90
22065;DHT22;11197;53.110;8.468;2023-07-13T06:01:39;18.80;99.90
22065;DHT22;11197;53.110;8.468;2023-07-13T06:04:06;18.70;99.90
22065;DHT22;11197;53.110;8.468;2023-07-13T06:06:32;18.70;99.90
22065;DHT22;11197;53.110;8.468;2023-07-13T06:08:58;18.60;99.90
22065;DHT22;11197;53.110;8.468;2023-07-13T06:11:25;18.50;99.90
22065;DHT22;11197;53.110;8.468;2023-07-13T06:13:53;18.30;99.90
22065;DHT22;11197;53.110;8.468;2023-07-13T06:16:19;18.20;99.90
22065;DHT22;11197;53.110;8.468;2023-07-13T06:18:45;18.10;99.90
22065;DHT22;11197;53.110;8.468;2023-07-13T06:21:18;18.10;99.90
22065;DHT22;11197;53.110;8.468;2023-07-13T06:23:46;18.10;99.90
22065;DHT22;11197;53.110;8.468;2023-07-13T06:26:13;18.00;99.90
22065;DHT22;11197;53.110;8.468;2023-07-13T06:28:39;18.00;99.90
22065;DHT22;11197;53.110;8.468;2023-07-13T06:31:07;18.00;99.90
22065;DHT22;11197;53.110;8.468;2023-07-13T06:33:33;18.00;99.90
22065;DHT22;11197;53.110;8.468;2023-07-13T06:35:59;17.90;99.90
22065;DHT22;11197;53.110;8.468;2023-07-13T06:38:25;17.90;99.90
22065;DHT22;11197;53.110;8.468;2023-07-13T06:40:52;17.90;99.90
22065;DHT22;11197;53.110;8.468;2023-07-13T06:43:17;17.90;99.90
22065;DHT22;11197;53.110;8.468;2023-07-13T06:45:46;18.00;99.90
22065;DHT22;11197;53.110;8.468;2023-07-13T06:48:14;18.10;99.90
22065;DHT22;11197;53.110;8.468;2023-07-13T06:50:42;18.20;99.90
22065;DHT22;11197;53.110;8.468;2023-07-13T06:53:08;18.30;99.90
22065;DHT22;11197;53.110;8.468;2023-07-13T06:55:34;18.30;99.90
22065;DHT22;11197;53.110;8.468;2023-07-13T06:58:00;18.20;99.90
22065;DHT22;11197;53.110;8.468;2023-07-13T07:00:26;18.30;99.90
22065;DHT22;11197;53.110;8.468;2023-07-13T07:02:51;18.30;99.90
22065;DHT22;11197;53.110;8.468;2023-07-13T07:05:17;18.40;99.90
22065;DHT22;11197;53.110;8.468;2023-07-13T07:07:43;18.50;99.90
22065;DHT22;11197;53.110;8.468;2023-07-13T07:10:09;18.60;99.90
22065;DHT22;11197;53.110;8.468;2023-07-13T07:12:34;18.70;99.90
22065;DHT22;11197;53.110;8.468;2023-07-13T07:15:00;18.80;99.90
22065;DHT22;11197;53.110;8.468;2023-07-13T07:17:26;18.90;99.90
22065;DHT22;11197;53.110;8.468;2023-07-13T07:19:52;19.00;99.90
22065;DHT22;11197;53.110;8.468;2023-07-13T07:22:20;19.10;99.90
22065;DHT22;11197;53.110;8.468;2023-07-13T07:24:46;19.10;99.90
22065;DHT22;11197;53.110;8.468;2023-07-13T07:27:11;19.10;99.90
22065;DHT22;11197;53.110;8.468;2023-07-13T07:29:37;19.00;99.90
22065;DHT22;11197;53.110;8.468;2023-07-13T07:32:03;19.00;99.90
22065;DHT22;11197;53.110;8.468;2023-07-13T07:34:30;19.00;99.90
22065;DHT22;11197;53.110;8.468;2023-07-13T07:37:00;19.10;99.90
22065;DHT22;11197;53.110;8.468;2023-07-13T07:39:26;19.10;99.90
22065;DHT22;11197;53.110;8.468;2023-07-13T07:41:52;19.10;99.90
22065;DHT22;11197;53.110;8.468;2023-07-13T07:44:18;19.20;99.90
22065;DHT22;11197;53.110;8.468;2023-07-13T07:46:44;19.20;99.90
22065;DHT22;11197;53.110;8.468;2023-07-13T07:49:10;19.10;99.90
22065;DHT22;11197;53.110;8.468;2023-07-13T07:51:36;19.10;99.90
22065;DHT22;11197;53.110;8.468;2023-07-13T07:54:04;19.10;99.90
22065;DHT22;11197;53.110;8.468;2023-07-13T07:56:30;19.20;99.90
22065;DHT22;11197;53.110;8.468;2023-07-13T07:58:56;19.20;99.90
22065;DHT22;11197;53.110;8.468;2023-07-13T08:01:22;19.30;99.90
22065;DHT22;11197;53.110;8.468;2023-07-13T08:03:48;19.40;99.90
22065;DHT22;11197;53.110;8.468;2023-07-13T08:06:14;19.50;99.90
22065;DHT22;11197;53.110;8.468;2023-07-13T08:08:40;19.60;99.90
22065;DHT22;11197;53.110;8.468;2023-07-13T08:11:07;19.60;99.90
22065;DHT22;11197;53.110;8.468;2023-07-13T08:13:34;19.70;99.90
22065;DHT22;11197;53.110;8.468;2023-07-13T08:16:00;19.70;99.90
22065;DHT22;11197;53.110;8.468;2023-07-13T08:18:26;19.70;99.90
22065;DHT22;11197;53.110;8.468;2023-07-13T08:20:54;19.70;99.90
22065;DHT22;11197;53.110;8.468;2023-07-13T08:23:22;19.70;99.90
22065;DHT22;11197;53.110;8.468;2023-07-13T08:25:55;19.80;99.90
22065;DHT22;11197;53.110;8.468;2023-07-13T08:28:22;19.80;99.90
22065;DHT22;11197;53.110;8.468;2023-07-13T08:30:49;19.80;99.90
22065;DHT22;11197;53.110;8.468;2023-07-13T08:33:15;19.80;99.90
22065;DHT22;11197;53.110;8.468;2023-07-13T08:35:41;19.90;99.90
22065;DHT22;11197;53.110;8.468;2023-07-13T08:38:07;19.90;99.90
22065;DHT22;11197;53.110;8.468;2023-07-13T08:40:34;20.00;99.90
22065;DHT22;11197;53.110;8.468;2023-07-13T08:42:59;20.00;99.90
22065;DHT22;11197;53.110;8.468;2023-07-13T08:46:02;20.10;99.90
22065;DHT22;11197;53.110;8.468;2023-07-13T08:48:39;20.20;99.90
22065;DHT22;11197;53.110;8.468;2023-07-13T08:51:20;20.20;99.90
22065;DHT22;11197;53.110;8.468;2023-07-13T08:53:49;20.20;99.90
22065;DHT22;11197;53.110;8.468;2023-07-13T08:56:19;20.20;99.90
22065;DHT22;11197;53.110;8.468;2023-07-13T08:58:49;20.30;99.90
22065;DHT22;11197;53.110;8.468;2023-07-13T09:04:27;20.40;99.90
22065;DHT22;11197;53.110;8.468;2023-07-13T09:07:14;20.40;99.90
22065;DHT22;11197;53.110;8.468;2023-07-13T09:13:00;20.60;99.90
22065;DHT22;11197;53.110;8.468;2023-07-13T09:15:31;20.60;99.90
22065;DHT22;11197;53.110;8.468;2023-07-13T09:18:21;20.70;99.90
22065;DHT22;11197;53.110;8.468;2023-07-13T09:20:52;20.70;99.90
22065;DHT22;11197;53.110;8.468;2023-07-13T09:23:22;20.80;99.90
22065;DHT22;11197;53.110;8.468;2023-07-13T09:25:53;20.70;99.90
22065;DHT22;11197;53.110;8.468;2023-07-13T09:28:25;20.70;99.90
22065;DHT22;11197;53.110;8.468;2023-07-13T09:31:06;20.80;99.90
22065;DHT22;11197;53.110;8.468;2023-07-13T09:33:32;20.80;99.90
22065;DHT22;11197;53.110;8.468;2023-07-13T09:36:00;20.70;99.90
22065;DHT22;11197;53.110;8.468;2023-07-13T09:38:29;20.70;99.90
22065;DHT22;11197;53.110;8.468;2023-07-13T09:44:18;20.70;99.90
22065;DHT22;11197;53.110;8.468;2023-07-13T09:46:54;20.70;99.90
22065;DHT22;11197;53.110;8.468;2023-07-13T09:49:24;20.70;99.90
22065;DHT22;11197;53.110;8.468;2023-07-13T09:51:58;20.80;99.90
22065;DHT22;11197;53.110;8.468;2023-07-13T09:54:25;20.90;99.90
22065;DHT22;11197;53.110;8.468;2023-07-13T09:56:56;20.90;99.90
22065;DHT22;11197;53.110;8.468;2023-07-13T09:59:23;20.90;99.90
22065;DHT22;11197;53.110;8.468;2023-07-13T10:01:49;21.00;99.90
22065;DHT22;11197;53.110;8.468;2023-07-13T10:04:18;21.10;99.90
22065;DHT22;11197;53.110;8.468;2023-07-13T10:06:45;21.20;99.90
22065;DHT22;11197;53.110;8.468;2023-07-13T10:09:16;21.20;99.90
22065;DHT22;11197;53.110;8.468;2023-07-13T10:11:42;21.30;99.90
22065;DHT22;11197;53.110;8.468;2023-07-13T10:14:16;21.30;99.90
22065;DHT22;11197;53.110;8.468;2023-07-13T10:16:45;21.30;99.90
22065;DHT22;11197;53.110;8.468;2023-07-13T10:19:12;21.30;99.90
22065;DHT22;11197;53.110;8.468;2023-07-13T10:21:50;21.20;99.90
22065;DHT22;11197;53.110;8.468;2023-07-13T10:24:55;21.00;99.90
22065;DHT22;11197;53.110;8.468;2023-07-13T10:27:29;20.90;99.90
22065;DHT22;11197;53.110;8.468;2023-07-13T10:32:51;20.30;99.90
22065;DHT22;11197;53.110;8.468;2023-07-13T10:35:20;20.10;99.90
22065;DHT22;11197;53.110;8.468;2023-07-13T10:37:55;19.80;99.90
22065;DHT22;11197;53.110;8.468;2023-07-13T10:41:01;19.70;99.90
22065;DHT22;11197;53.110;8.468;2023-07-13T10:43:27;19.50;99.90
22065;DHT22;11197;53.110;8.468;2023-07-13T10:45:54;19.50;99.90
22065;DHT22;11197;53.110;8.468;2023-07-13T10:48:22;19.50;99.90
22065;DHT22;11197;53.110;8.468;2023-07-13T10:50:51;19.50;99.90
22065;DHT22;11197;53.110;8.468;2023-07-13T10:53:32;19.50;99.90
22065;DHT22;11197;53.110;8.468;2023-07-13T10:56:00;19.40;99.90
22065;DHT22;11197;53.110;8.468;2023-07-13T10:58:41;19.30;99.90
22065;DHT22;11197;53.110;8.468;2023-07-13T11:01:10;19.30;99.90
22065;DHT22;11197;53.110;8.468;2023-07-13T11:08:37;19.30;99.90
22065;DHT22;11197;53.110;8.468;2023-07-13T11:19:37;19.40;99.90
22065;DHT22;11197;53.110;8.468;2023-07-13T11:24:50;19.00;99.90
22065;DHT22;11197;53.110;8.468;2023-07-13T11:27:40;18.80;99.90
22065;DHT22;11197;53.110;8.468;2023-07-13T11:30:22;18.70;99.90
22065;DHT22;11197;53.110;8.468;2023-07-13T11:32:52;18.60;99.90
22065;DHT22;11197;53.110;8.468;2023-07-13T11:35:28;18.50;99.90
22065;DHT22;11197;53.110;8.468;2023-07-13T11:37:54;18.40;99.90
22065;DHT22;11197;53.110;8.468;2023-07-13T11:40:22;18.40;99.90
22065;DHT22;11197;53.110;8.468;2023-07-13T11:42:51;18.30;99.90
22065;DHT22;11197;53.110;8.468;2023-07-13T11:45:21;18.10;99.90
22065;DHT22;11197;53.110;8.468;2023-07-13T11:47:49;18.10;99.90
22065;DHT22;11197;53.110;8.468;2023-07-13T11:50:21;18.00;99.90
22065;DHT22;11197;53.110;8.468;2023-07-13T11:52:49;17.90;99.90
22065;DHT22;11197;53.110;8.468;2023-07-13T11:55:20;17.90;99.90
22065;DHT22;11197;53.110;8.468;2023-07-13T11:58:01;17.80;99.90
22065;DHT22;11197;53.110;8.468;2023-07-13T12:00:31;17.80;99.90
22065;DHT22;11197;53.110;8.468;2023-07-13T12:03:00;17.80;99.90
22065;DHT22;11197;53.110;8.468;2023-07-13T12:05:28;17.60;99.90
22065;DHT22;11197;53.110;8.468;2023-07-13T12:07:54;17.70;99.90
22065;DHT22;11197;53.110;8.468;2023-07-13T12:10:23;17.60;99.90
22065;DHT22;11197;53.110;8.468;2023-07-13T12:13:03;17.60;99.90
22065;DHT22;11197;53.110;8.468;2023-07-13T12:15:47;17.70;99.90
22065;DHT22;11197;53.110;8.468;2023-07-13T12:18:18;17.70;99.90
22065;DHT22;11197;53.110;8.468;2023-07-13T12:20:45;17.70;99.90
22065;DHT22;11197;53.110;8.468;2023-07-13T12:23:32;17.60;99.90
22065;DHT22;11197;53.110;8.468;2023-07-13T12:26:00;17.70;99.90
22065;DHT22;11197;53.110;8.468;2023-07-13T12:31:06;17.80;99.90
22065;DHT22;11197;53.110;8.468;2023-07-13T12:33:33;17.80;99.90
22065;DHT22;11197;53.110;8.468;2023-07-13T12:36:05;17.90;99.90
22065;DHT22;11197;53.110;8.468;2023-07-13T12:38:32;18.00;99.90
22065;DHT22;11197;53.110;8.468;2023-07-13T12:40:58;18.10;99.90
22065;DHT22;11197;53.110;8.468;2023-07-13T12:43:25;18.10;99.90
22065;DHT22;11197;53.110;8.468;2023-07-13T12:46:19;18.20;99.90
22065;DHT22;11197;53.110;8.468;2023-07-13T12:48:43;18.30;99.90
22065;DHT22;11197;53.110;8.468;2023-07-13T12:51:13;18.40;99.90
22065;DHT22;11197;53.110;8.468;2023-07-13T12:53:49;18.50;99.90
22065;DHT22;11197;53.110;8.468;2023-07-13T12:56:19;18.50;99.90
22065;DHT22;11197;53.110;8.468;2023-07-13T12:58:47;18.60;99.90
22065;DHT22;11197;53.110;8.468;2023-07-13T13:01:17;18.70;99.90
22065;DHT22;11197;53.110;8.468;2023-07-13T13:03:49;18.70;99.90
22065;DHT22;11197;53.110;8.468;2023-07-13T13:08:50;18.90;99.90
22065;DHT22;11197;53.110;8.468;2023-07-13T13:11:17;19.00;99.90
22065;DHT22;11197;53.110;8.468;2023-07-13T13:13:44;19.00;99.90
22065;DHT22;11197;53.110;8.468;2023-07-13T13:18:46;19.20;99.90
22065;DHT22;11197;53.110;8.468;2023-07-13T13:21:12;19.30;99.90
22065;DHT22;11197;53.110;8.468;2023-07-13T13:23:38;19.40;99.90
22065;DHT22;11197;53.110;8.468;2023-07-13T13:26:12;19.40;99.90
22065;DHT22;11197;53.110;8.468;2023-07-13T13:28:38;19.50;99.90
22065;DHT22;11197;53.110;8.468;2023-07-13T13:31:04;19.60;99.90
22065;DHT22;11197;53.110;8.468;2023-07-13T13:33:30;19.70;99.90
22065;DHT22;11197;53.110;8.468;2023-07-13T13:35:56;19.70;99.90
22065;DHT22;11197;53.110;8.468;2023-07-13T13:38:26;19.70;99.90
22065;DHT22;11197;53.110;8.468;2023-07-13T13:40:53;19.80;99.90
22065;DHT22;11197;53.110;8.468;2023-07-13T13:43:24;19.90;99.90
22065;DHT22;11197;53.110;8.468;2023-07-13T13:45:57;20.00;99.90
22065;DHT22;11197;53.110;8.468;2023-07-13T13:48:33;20.00;99.90
22065;DHT22;11197;53.110;8.468;2023-07-13T13:51:06;20.00;99.90
22065;DHT22;11197;53.110;8.468;2023-07-13T13:53:36;20.10;99.90
22065;DHT22;11197;53.110;8.468;2023-07-13T13:56:02;20.20;99.90
22065;DHT22;11197;53.110;8.468;2023-07-13T13:58:27;20.10;99.90
22065;DHT22;11197;53.110;8.468;2023-07-13T14:00:53;20.20;99.90
22065;DHT22;11197;53.110;8.468;2023-07-13T14:03:20;20.20;99.90
22065;DHT22;11197;53.110;8.468;2023-07-13T14:05:47;20.30;99.90
22065;DHT22;11197;53.110;8.468;2023-07-13T14:08:19;20.40;99.90
22065;DHT22;11197;53.110;8.468;2023-07-13T14:10:46;20.50;99.90
22065;DHT22;11197;53.110;8.468;2023-07-13T14:13:36;20.50;99.90
22065;DHT22;11197;53.110;8.468;2023-07-13T14:16:15;20.60;99.90
22065;DHT22;11197;53.110;8.468;2023-07-13T14:18:43;20.50;99.90
22065;DHT22;11197;53.110;8.468;2023-07-13T14:21:14;20.60;99.90
22065;DHT22;11197;53.110;8.468;2023-07-13T14:23:41;20.60;99.90
22065;DHT22;11197;53.110;8.468;2023-07-13T14:26:12;20.70;99.90
22065;DHT22;11197;53.110;8.468;2023-07-13T14:28:42;20.80;99.90
22065;DHT22;11197;53.110;8.468;2023-07-13T14:31:09;20.80;99.90
22065;DHT22;11197;53.110;8.468;2023-07-13T14:33:34;20.90;99.90
22065;DHT22;11197;53.110;8.468;2023-07-13T14:36:01;20.90;99.90
22065;DHT22;11197;53.110;8.468;2023-07-13T14:38:27;20.90;99.90
22065;DHT22;11197;53.110;8.468;2023-07-13T14:40:53;21.00;99.90
22065;DHT22;11197;53.110;8.468;2023-07-13T14:43:18;21.00;99.90
22065;DHT22;11197;53.110;8.468;2023-07-13T14:45:47;21.00;99.90
22065;DHT22;11197;53.110;8.468;2023-07-13T14:48:21;21.00;99.90
22065;DHT22;11197;53.110;8.468;2023-07-13T14:50:55;20.80;99.90
22065;DHT22;11197;53.110;8.468;2023-07-13T14:53:22;20.70;99.90
22065;DHT22;11197;53.110;8.468;2023-07-13T14:55:48;20.50;99.90
22065;DHT22;11197;53.110;8.468;2023-07-13T14:58:14;20.20;99.90
22065;DHT22;11197;53.110;8.468;2023-07-13T15:00:40;20.10;99.90
22065;DHT22;11197;53.110;8.468;2023-07-13T15:03:21;20.00;99.90
22065;DHT22;11197;53.110;8.468;2023-07-13T15:05:48;19.90;99.90
22065;DHT22;11197;53.110;8.468;2023-07-13T15:08:15;19.90;99.90
22065;DHT22;11197;53.110;8.468;2023-07-13T15:10:41;19.80;99.90
22065;DHT22;11197;53.110;8.468;2023-07-13T15:13:21;19.80;99.90
22065;DHT22;11197;53.110;8.468;2023-07-13T15:15:49;19.80;99.90
22065;DHT22;11197;53.110;8.468;2023-07-13T15:18:18;19.80;99.90
22065;DHT22;11197;53.110;8.468;2023-07-13T15:20:45;19.70;99.90
22065;DHT22;11197;53.110;8.468;2023-07-13T15:23:13;19.70;99.90
22065;DHT22;11197;53.110;8.468;2023-07-13T15:25:41;19.60;99.90
22065;DHT22;11197;53.110;8.468;2023-07-13T15:28:07;19.60;99.90
22065;DHT22;11197;53.110;8.468;2023-07-13T15:30:42;19.50;99.90
22065;DHT22;11197;53.110;8.468;2023-07-13T15:33:15;19.40;99.90
22065;DHT22;11197;53.110;8.468;2023-07-13T15:35:43;19.30;99.90
22065;DHT22;11197;53.110;8.468;2023-07-13T15:38:24;19.30;99.90
22065;DHT22;11197;53.110;8.468;2023-07-13T15:40:51;19.20;99.90
22065;DHT22;11197;53.110;8.468;2023-07-13T15:43:18;19.20;99.90
22065;DHT22;11197;53.110;8.468;2023-07-13T15:45:45;19.10;99.90
22065;DHT22;11197;53.110;8.468;2023-07-13T15:50:46;19.10;99.90
22065;DHT22;11197;53.110;8.468;2023-07-13T15:53:24;19.00;99.90
22065;DHT22;11197;53.110;8.468;2023-07-13T15:55:52;19.00;99.90
22065;DHT22;11197;53.110;8.468;2023-07-13T15:58:18;18.90;99.90
22065;DHT22;11197;53.110;8.468;2023-07-13T16:00:45;18.90;99.90
22065;DHT22;11197;53.110;8.468;2023-07-13T16:03:11;18.90;99.90
22065;DHT22;11197;53.110;8.468;2023-07-13T16:05:38;18.80;99.90
22065;DHT22;11197;53.110;8.468;2023-07-13T16:08:06;18.80;99.90
22065;DHT22;11197;53.110;8.468;2023-07-13T16:10:37;18.70;99.90
22065;DHT22;11197;53.110;8.468;2023-07-13T16:13:04;18.70;99.90
22065;DHT22;11197;53.110;8.468;2023-07-13T16:15:34;18.60;99.90
22065;DHT22;11197;53.110;8.468;2023-07-13T16:18:00;18.60;99.90
22065;DHT22;11197;53.110;8.468;2023-07-13T16:20:25;18.60;99.90